Aviation Digital Data Service (ADDS)

Output produced by METARs form (0716 UTC 23 October 2018)
found at http://aviationweather.gov/metar/data/
 
KSGR 230520Z 2306/2406 01006KT 6SM -RA SCT060 BKN120 
     FM230800 02008KT P6SM -RA SCT015 OVC045 
     FM231800 03009KT P6SM SCT035 BKN150 
     FM240000 02008KT P6SM FEW040 BKN250 
     FM240400 03007KT P6SM SCT040 BKN250